createdAt,value
2018-04-25T00:00:07.053Z,86.75
2018-04-25T00:03:10.397Z,86.82
2018-04-25T00:06:14.479Z,86.95
2018-04-25T00:09:17.799Z,87.18
2018-04-25T00:12:21.898Z,87.05
2018-04-25T00:15:26.714Z,87.10
2018-04-25T00:18:30.280Z,87.13
2018-04-25T00:21:33.586Z,87.18
2018-04-25T00:24:36.906Z,87.44
2018-04-25T00:27:40.236Z,87.48
2018-04-25T00:30:43.607Z,87.55
2018-04-25T00:33:46.929Z,87.47
2018-04-25T00:36:50.228Z,87.51
2018-04-25T00:39:53.559Z,87.77
2018-04-25T00:42:56.902Z,87.59
2018-04-25T00:46:00.359Z,88.02
2018-04-25T00:49:03.704Z,87.77
2018-04-25T00:52:07.100Z,87.42
2018-04-25T00:55:10.411Z,87.49
2018-04-25T00:58:14.621Z,87.68
2018-04-25T01:01:19.000Z,87.66
2018-04-25T01:04:22.455Z,87.87
2018-04-25T01:07:25.754Z,87.83
2018-04-25T01:10:29.089Z,88.00
2018-04-25T01:13:33.257Z,87.72
2018-04-25T01:16:36.587Z,87.60
2018-04-25T01:19:40.659Z,87.93
2018-04-25T01:22:54.793Z,87.84
2018-04-25T01:26:06.518Z,87.91
2018-04-25T01:29:09.918Z,87.77
2018-04-25T01:32:13.216Z,87.91
2018-04-25T01:35:16.606Z,87.69
2018-04-25T01:38:19.910Z,87.29
2018-04-25T01:41:23.318Z,87.09
2018-04-25T01:44:28.236Z,86.54
2018-04-25T01:47:36.022Z,86.75
2018-04-25T01:50:39.344Z,86.02
2018-04-25T01:54:00.650Z,86.01
2018-04-25T01:57:21.885Z,86.41
2018-04-25T02:00:43.299Z,86.71
2018-04-25T02:03:56.913Z,86.33
2018-04-25T02:07:00.354Z,86.72
2018-04-25T02:10:03.670Z,86.33
2018-04-25T02:13:07.003Z,86.75
2018-04-25T02:16:10.306Z,87.11
2018-04-25T02:19:13.639Z,87.30
2018-04-25T02:22:17.041Z,86.22
2018-04-25T02:25:20.436Z,86.35
2018-04-25T02:28:23.732Z,86.20
2018-04-25T02:31:27.142Z,87.19
2018-04-25T02:34:30.539Z,87.05
2018-04-25T02:37:33.870Z,87.49
2018-04-25T02:40:37.180Z,87.28
2018-04-25T02:43:41.362Z,87.35
2018-04-25T02:46:44.745Z,87.74
2018-04-25T02:49:48.170Z,86.98
2018-04-25T02:52:51.557Z,87.79
2018-04-25T02:55:54.882Z,87.47
2018-04-25T02:58:58.326Z,87.04
2018-04-25T03:02:03.100Z,87.74
2018-04-25T03:05:06.489Z,87.95
2018-04-25T03:08:09.880Z,87.80
2018-04-25T03:11:13.188Z,88.78
2018-04-25T03:14:16.685Z,88.84
2018-04-25T03:17:20.082Z,88.57
2018-04-25T03:20:23.409Z,88.45
2018-04-25T03:23:26.795Z,89.10
2018-04-25T03:26:30.178Z,90.02
2018-04-25T03:29:33.472Z,90.57
2018-04-25T03:32:36.784Z,90.63
2018-04-25T03:35:40.080Z,90.58
2018-04-25T03:38:43.468Z,91.16
2018-04-25T03:41:46.878Z,91.15
2018-04-25T03:44:50.210Z,91.15
2018-04-25T03:47:54.285Z,91.29
2018-04-25T03:50:57.685Z,90.98
2018-04-25T03:54:00.986Z,90.92
2018-04-25T03:57:04.313Z,90.89
2018-04-25T04:00:07.612Z,90.73
2018-04-25T04:03:10.933Z,91.39
2018-04-25T04:06:14.993Z,90.61
2018-04-25T04:09:18.308Z,90.46
2018-04-25T04:12:21.692Z,90.79
2018-04-25T04:15:25.009Z,91.23
2018-04-25T04:18:29.761Z,91.56
2018-04-25T04:21:33.942Z,91.78
2018-04-25T04:24:37.249Z,91.91
2018-04-25T04:27:40.585Z,92.27
2018-04-25T04:30:44.761Z,92.09
2018-04-25T04:33:48.149Z,90.85
2018-04-25T04:36:51.570Z,89.92
2018-04-25T04:39:54.953Z,89.62
2018-04-25T04:42:58.257Z,90.30
2018-04-25T04:46:02.070Z,90.44
2018-04-25T04:49:05.378Z,90.42
2018-04-25T04:52:08.753Z,90.72
2018-04-25T04:55:12.066Z,90.78
2018-04-25T04:58:15.458Z,91.25
2018-04-25T05:01:18.975Z,90.97
2018-04-25T05:04:22.362Z,91.51
2018-04-25T05:07:25.765Z,91.71
2018-04-25T05:10:29.086Z,91.09
2018-04-25T05:13:32.390Z,91.33
2018-04-25T05:16:35.861Z,91.99
2018-04-25T05:19:39.157Z,91.96
2018-04-25T05:22:42.477Z,91.50
2018-04-25T05:25:45.858Z,91.31
2018-04-25T05:28:49.250Z,91.30
2018-04-25T05:31:52.553Z,91.42
2018-04-25T05:34:55.877Z,91.08
2018-04-25T05:37:59.271Z,91.09
2018-04-25T05:41:02.611Z,90.91
2018-04-25T05:44:05.918Z,91.52
2018-04-25T05:47:09.246Z,91.19
2018-04-25T05:50:12.546Z,91.10
2018-04-25T05:53:16.007Z,91.05
2018-04-25T05:56:19.357Z,91.00
2018-04-25T05:59:22.774Z,90.46
2018-04-25T06:02:26.073Z,90.50
2018-04-25T06:05:29.434Z,90.31
2018-04-25T06:08:32.854Z,90.36
2018-04-25T06:11:36.940Z,90.30
2018-04-25T06:14:40.245Z,90.25
2018-04-25T06:17:43.574Z,90.05
2018-04-25T06:20:46.881Z,89.28
2018-04-25T06:23:50.208Z,89.38
2018-04-25T06:26:53.514Z,89.48
2018-04-25T06:29:56.866Z,89.75
2018-04-25T06:33:00.246Z,89.99
2018-04-25T06:36:03.642Z,90.44
2018-04-25T06:39:07.037Z,90.35
2018-04-25T06:42:10.348Z,90.44
2018-04-25T06:45:13.658Z,90.07
2018-04-25T06:48:16.995Z,90.25
2018-04-25T06:51:20.296Z,90.65
2018-04-25T06:54:23.616Z,90.94
2018-04-25T06:57:26.942Z,91.53
2018-04-25T07:00:30.283Z,91.93
2018-04-25T07:03:33.628Z,92.16
2018-04-25T07:06:36.947Z,91.89
2018-04-25T07:09:40.334Z,91.57
2018-04-25T07:12:43.668Z,91.58
2018-04-25T07:15:47.738Z,91.48
2018-04-25T07:18:51.066Z,91.56
2018-04-25T07:21:54.439Z,90.42
2018-04-25T07:24:57.796Z,90.13
2018-04-25T07:28:01.094Z,89.22
2018-04-25T07:31:04.433Z,89.20
2018-04-25T07:34:07.935Z,88.75
2018-04-25T07:37:11.329Z,89.32
2018-04-25T07:40:15.362Z,88.65
2018-04-25T07:43:18.693Z,87.77
2018-04-25T07:46:22.890Z,87.63
2018-04-25T07:49:26.337Z,87.09
2018-04-25T07:52:29.668Z,86.35
2018-04-25T07:55:32.996Z,85.76
2018-04-25T07:58:37.094Z,86.79
2018-04-25T08:01:40.422Z,87.21
2018-04-25T08:04:44.556Z,86.96
2018-04-25T08:07:47.901Z,86.69
2018-04-25T08:10:51.197Z,85.46
2018-04-25T08:14:12.349Z,85.27
2018-04-25T08:17:34.201Z,85.30
2018-04-25T08:24:21.910Z,85.17
2018-04-25T08:27:25.318Z,85.13
2018-04-25T08:30:28.625Z,84.40
2018-04-25T08:33:31.960Z,84.93
2018-04-25T08:36:35.263Z,84.52
2018-04-25T08:39:38.693Z,84.20
2018-04-25T08:42:41.993Z,84.19
2018-04-25T08:45:45.322Z,84.32
2018-04-25T08:48:48.706Z,83.00
2018-04-25T08:51:52.162Z,82.43
2018-04-25T08:54:55.489Z,81.70
2018-04-25T08:57:58.913Z,81.55
2018-04-25T09:01:02.301Z,79.71
2018-04-25T09:04:05.648Z,79.73
2018-04-25T09:07:08.991Z,78.10
2018-04-25T09:10:12.316Z,77.69
2018-04-25T09:13:15.780Z,75.81
2018-04-25T09:16:19.204Z,75.13
2018-04-25T09:19:22.650Z,75.17
2018-04-25T09:22:25.976Z,73.17
2018-04-25T09:25:29.455Z,72.95
2018-04-25T09:28:32.855Z,74.17
2018-04-25T09:31:36.178Z,73.90
2018-04-25T09:34:39.519Z,73.55
2018-04-25T09:37:42.840Z,73.13
2018-04-25T09:40:46.996Z,71.06
2018-04-25T09:43:50.318Z,71.06
2018-04-25T09:46:53.730Z,69.19
2018-04-25T09:49:57.053Z,68.13
2018-04-25T09:53:01.242Z,66.98
2018-04-25T09:56:04.679Z,62.89
2018-04-25T09:59:08.129Z,64.93
2018-04-25T10:05:53.790Z,67.47
2018-04-25T10:08:57.258Z,63.85
2018-04-25T10:12:02.282Z,64.01
2018-04-25T10:15:05.600Z,63.68
2018-04-25T10:18:08.981Z,62.22
2018-04-25T10:21:12.314Z,61.57
2018-04-25T10:24:16.445Z,60.76
2018-04-25T10:27:19.762Z,59.97
2018-04-25T10:30:23.190Z,60.11
2018-04-25T10:33:26.504Z,61.35
2018-04-25T10:36:29.924Z,61.13
2018-04-25T10:39:34.164Z,62.71
2018-04-25T10:42:37.600Z,60.30
2018-04-25T10:45:41.068Z,60.70
2018-04-25T10:48:44.622Z,61.26
2018-04-25T10:51:47.954Z,61.25
2018-04-25T10:54:52.062Z,62.37
2018-04-25T10:57:56.242Z,62.77
2018-04-25T11:00:59.578Z,60.43
2018-04-25T11:04:03.669Z,60.66
2018-04-25T11:07:07.069Z,59.75
2018-04-25T11:10:10.380Z,61.27
2018-04-25T11:13:14.006Z,63.87
2018-04-25T11:16:18.323Z,64.13
2018-04-25T11:19:22.426Z,64.53
2018-04-25T11:22:25.741Z,65.74
2018-04-25T11:25:29.905Z,64.74
2018-04-25T11:28:33.318Z,64.84
2018-04-25T11:31:36.716Z,64.30
2018-04-25T11:34:40.935Z,62.92
2018-04-25T11:37:44.276Z,63.80
2018-04-25T11:40:48.454Z,63.73
2018-04-25T11:43:51.788Z,63.94
2018-04-25T11:46:55.856Z,65.64
2018-04-25T11:49:59.196Z,65.37
2018-04-25T11:53:02.565Z,65.34
2018-04-25T11:56:06.021Z,65.08
2018-04-25T11:59:09.331Z,64.23
2018-04-25T12:02:12.667Z,61.19
2018-04-25T12:05:16.049Z,60.18
2018-04-25T12:08:19.380Z,61.59
2018-04-25T12:11:22.718Z,62.21
2018-04-25T12:14:26.189Z,64.17
2018-04-25T12:17:29.554Z,66.63
2018-04-25T12:20:32.906Z,68.54
2018-04-25T12:23:37.082Z,67.40
2018-04-25T12:26:40.497Z,65.93
2018-04-25T12:29:43.840Z,66.87
2018-04-25T12:32:48.508Z,68.72
2018-04-25T12:35:51.931Z,69.78
2018-04-25T12:38:55.302Z,69.57
2018-04-25T12:41:58.616Z,67.43
2018-04-25T12:45:03.482Z,65.09
2018-04-25T12:48:07.584Z,66.33
2018-04-25T12:51:10.948Z,65.72
2018-04-25T12:54:15.369Z,64.60
2018-04-25T12:57:18.769Z,63.46
2018-04-25T13:00:22.090Z,61.91
2018-04-25T13:03:25.534Z,62.36
2018-04-25T13:06:28.853Z,62.09
2018-04-25T13:09:32.269Z,61.83
2018-04-25T13:12:35.602Z,64.30
2018-04-25T13:15:38.930Z,65.58
2018-04-25T13:18:42.233Z,66.50
2018-04-25T13:21:45.566Z,64.89
2018-04-25T13:24:48.882Z,65.34
2018-04-25T13:27:52.239Z,65.29
2018-04-25T13:30:55.720Z,63.77
2018-04-25T13:33:59.147Z,62.61
2018-04-25T13:37:02.469Z,63.76
2018-04-25T13:40:05.812Z,65.86
2018-04-25T13:43:10.629Z,68.42
2018-04-25T13:46:13.973Z,66.95
2018-04-25T13:49:17.320Z,66.95
2018-04-25T13:52:21.554Z,65.04
2018-04-25T13:55:26.386Z,65.00
2018-04-25T13:58:30.573Z,65.11
2018-04-25T14:01:33.907Z,65.91
2018-04-25T14:04:38.087Z,65.45
2018-04-25T14:07:41.482Z,64.88
2018-04-25T14:10:44.837Z,63.99
2018-04-25T14:13:48.154Z,61.55
2018-04-25T14:16:51.586Z,62.55
2018-04-25T14:19:54.981Z,63.44
2018-04-25T14:22:58.329Z,63.08
2018-04-25T14:26:01.685Z,63.51
2018-04-25T14:29:06.547Z,64.33
2018-04-25T14:32:10.628Z,63.54
2018-04-25T14:35:13.962Z,63.77
2018-04-25T14:38:18.029Z,65.43
2018-04-25T14:41:22.225Z,65.40
2018-04-25T14:44:25.574Z,65.95
2018-04-25T14:47:28.922Z,67.03
2018-04-25T14:50:32.254Z,67.82
2018-04-25T14:53:35.658Z,69.86
2018-04-25T14:56:39.075Z,71.05
2018-04-25T14:59:43.178Z,71.84
2018-04-25T15:02:46.935Z,72.48
2018-04-25T15:05:50.284Z,72.30
2018-04-25T15:08:53.665Z,71.71
2018-04-25T15:11:57.012Z,70.99
2018-04-25T15:15:01.163Z,70.24
2018-04-25T15:18:04.517Z,69.52
2018-04-25T15:21:07.814Z,69.40
2018-04-25T15:24:11.197Z,68.17
2018-04-25T15:27:14.584Z,68.83
2018-04-25T15:30:17.931Z,68.72
2018-04-25T15:33:22.107Z,67.92
2018-04-25T15:36:25.463Z,67.19
2018-04-25T15:39:28.770Z,68.24
2018-04-25T15:42:32.219Z,67.93
2018-04-25T15:45:35.527Z,67.74
2018-04-25T15:48:38.878Z,67.72
2018-04-25T15:51:42.261Z,68.25
2018-04-25T15:54:45.703Z,67.97
2018-04-25T15:57:49.014Z,67.99
2018-04-25T16:00:52.408Z,68.72
2018-04-25T16:03:55.796Z,71.42
2018-04-25T16:06:59.157Z,71.91
2018-04-25T16:10:02.469Z,72.03
2018-04-25T16:13:05.923Z,72.35
2018-04-25T16:16:10.895Z,73.41
2018-04-25T16:19:14.236Z,73.43
2018-04-25T16:22:17.647Z,74.16
2018-04-25T16:25:21.033Z,73.95
2018-04-25T16:28:24.330Z,74.54
2018-04-25T16:31:27.736Z,75.18
2018-04-25T16:34:31.029Z,75.42
2018-04-25T16:37:34.368Z,77.18
2018-04-25T16:40:38.462Z,78.10
2018-04-25T16:43:41.901Z,80.25
2018-04-25T16:46:45.306Z,79.91
2018-04-25T16:49:48.752Z,78.31
2018-04-25T16:52:52.161Z,78.56
2018-04-25T16:55:55.541Z,78.39
2018-04-25T16:58:58.958Z,76.53
2018-04-25T17:02:03.071Z,74.32
2018-04-25T17:05:06.472Z,76.00
2018-04-25T17:08:09.805Z,73.44
2018-04-25T17:11:13.970Z,69.17
2018-04-25T17:14:17.309Z,62.54
2018-04-25T17:17:20.702Z,54.39
2018-04-25T17:20:24.060Z,53.24
2018-04-25T17:23:27.493Z,55.29
2018-04-25T17:26:30.866Z,61.04
2018-04-25T17:29:34.167Z,65.83
2018-04-25T17:32:37.512Z,67.52
2018-04-25T17:35:41.582Z,70.30
2018-04-25T17:38:44.993Z,71.24
2018-04-25T17:41:48.401Z,72.60
2018-04-25T17:44:51.725Z,73.03
2018-04-25T17:47:56.663Z,73.28
2018-04-25T17:51:00.773Z,73.83
2018-04-25T17:54:05.862Z,75.37
2018-04-25T17:57:10.605Z,75.84
2018-04-25T18:00:15.422Z,75.51
2018-04-25T18:03:20.450Z,75.48
2018-04-25T18:06:25.099Z,75.66
2018-04-25T18:09:29.877Z,76.16
2018-04-25T18:12:35.167Z,75.62
2018-04-25T18:15:39.885Z,76.13
2018-04-25T18:18:43.192Z,77.03
2018-04-25T18:21:48.181Z,77.47
2018-04-25T18:24:52.976Z,77.39
2018-04-25T18:27:57.624Z,77.46
2018-04-25T18:31:02.078Z,77.21
2018-04-25T18:34:07.782Z,77.53
2018-04-25T18:37:12.721Z,78.24
2018-04-25T18:40:17.379Z,78.12
2018-04-25T18:43:21.853Z,78.18
2018-04-25T18:46:26.458Z,78.26
2018-04-25T18:49:30.826Z,77.82
2018-04-25T18:52:34.592Z,77.52
2018-04-25T18:55:39.330Z,77.80
2018-04-25T18:58:43.011Z,77.75
2018-04-25T19:01:46.530Z,78.75
2018-04-25T19:04:50.223Z,78.48
2018-04-25T19:07:53.703Z,78.32
2018-04-25T19:10:57.256Z,78.30
2018-04-25T19:14:00.762Z,79.02
2018-04-25T19:17:04.420Z,78.79
2018-04-25T19:20:08.020Z,79.08
2018-04-25T19:23:11.404Z,78.18
2018-04-25T19:26:14.971Z,78.62
2018-04-25T19:29:18.694Z,78.53
2018-04-25T19:32:22.284Z,79.03
2018-04-25T19:35:25.960Z,79.19
2018-04-25T19:38:29.391Z,79.29
2018-04-25T19:41:32.889Z,80.46
2018-04-25T19:44:36.429Z,81.32
2018-04-25T19:47:39.939Z,81.32
2018-04-25T19:50:43.660Z,82.21
2018-04-25T19:53:47.439Z,82.53
2018-04-25T19:56:51.006Z,83.19
2018-04-25T19:59:54.545Z,83.39
2018-04-25T20:02:58.216Z,83.37
2018-04-25T20:06:02.348Z,83.27
2018-04-25T20:09:05.924Z,83.42
2018-04-25T20:12:10.338Z,83.38
2018-04-25T20:15:13.964Z,83.67
2018-04-25T20:18:19.588Z,83.32
2018-04-25T20:21:24.195Z,83.13
2018-04-25T20:24:29.341Z,83.29
2018-04-25T20:27:34.084Z,81.64
2018-04-25T20:30:39.051Z,82.14
2018-04-25T20:33:44.850Z,82.22
2018-04-25T20:36:49.720Z,82.33
2018-04-25T20:39:54.559Z,81.37
2018-04-25T20:42:58.921Z,81.82
2018-04-25T20:46:03.699Z,82.03
2018-04-25T20:49:09.993Z,82.65
2018-04-25T20:52:15.073Z,83.32
2018-04-25T20:55:19.831Z,83.23
2018-04-25T20:58:24.420Z,83.19
2018-04-25T21:01:29.356Z,83.20
2018-04-25T21:04:33.972Z,83.16
2018-04-25T21:07:38.891Z,82.79
2018-04-25T21:10:44.403Z,83.09
2018-04-25T21:13:49.398Z,83.32
2018-04-25T21:16:55.072Z,84.22
2018-04-25T21:19:59.842Z,85.15
2018-04-25T21:23:04.332Z,85.68
2018-04-25T21:26:09.188Z,86.30
2018-04-25T21:29:13.493Z,87.29
2018-04-25T21:32:18.593Z,87.95
2018-04-25T21:35:24.158Z,88.05
2018-04-25T21:38:28.770Z,88.60
2018-04-25T21:41:34.180Z,87.62
2018-04-25T21:44:39.123Z,87.57
2018-04-25T21:47:44.030Z,88.39
2018-04-25T21:50:48.372Z,88.03
2018-04-25T21:53:53.242Z,88.02
2018-04-25T21:56:58.818Z,88.13
2018-04-25T22:00:03.138Z,88.26
2018-04-25T22:03:08.047Z,88.49
2018-04-25T22:06:13.616Z,88.54
2018-04-25T22:09:19.147Z,88.50
2018-04-25T22:12:23.797Z,88.82
2018-04-25T22:15:28.731Z,88.55
2018-04-25T22:18:34.199Z,88.10
2018-04-25T22:21:39.046Z,88.10
2018-04-25T22:24:43.734Z,88.53
2018-04-25T22:27:49.444Z,88.87
2018-04-25T22:30:54.047Z,88.31
2018-04-25T22:33:58.870Z,88.09
2018-04-25T22:37:03.738Z,88.49
2018-04-25T22:40:09.430Z,88.27
2018-04-25T22:43:15.237Z,88.44
2018-04-25T22:46:20.147Z,87.71
2018-04-25T22:49:23.446Z,87.72
2018-04-25T22:52:26.768Z,87.65
2018-04-25T22:55:30.088Z,87.19
2018-04-25T22:58:33.564Z,87.85
2018-04-25T23:01:36.886Z,87.62
2018-04-25T23:04:40.208Z,87.42
2018-04-25T23:07:43.584Z,86.89
2018-04-25T23:10:46.972Z,87.49
2018-04-25T23:13:50.272Z,88.07
2018-04-25T23:16:53.592Z,88.58
2018-04-25T23:19:56.918Z,88.61
2018-04-25T23:23:01.028Z,88.65
2018-04-25T23:26:05.094Z,89.30
2018-04-25T23:29:08.425Z,89.27
2018-04-25T23:32:11.805Z,89.28
2018-04-25T23:35:15.200Z,88.97
2018-04-25T23:38:18.593Z,88.31
2018-04-25T23:41:21.916Z,88.14
2018-04-25T23:44:25.298Z,88.36
2018-04-25T23:47:28.704Z,88.86
2018-04-25T23:50:32.000Z,89.50
2018-04-25T23:53:35.346Z,89.38
2018-04-25T23:56:39.422Z,88.79
2018-04-25T23:59:42.760Z,88.66
